createdAt,value
2023-02-11T00:02:14.168Z,-2.20
2023-02-11T00:07:15.814Z,-2.25
2023-02-11T00:12:19.657Z,-2.28
2023-02-11T00:17:21.924Z,-2.30
2023-02-11T00:22:23.673Z,-2.32
2023-02-11T00:27:25.732Z,-2.35
2023-02-11T00:32:28.718Z,-2.39
2023-02-11T00:37:31.047Z,-2.36
2023-02-11T00:42:32.892Z,-2.31
2023-02-11T00:47:34.582Z,-2.31
2023-02-11T00:52:36.190Z,-2.34
2023-02-11T00:57:37.870Z,-2.35
2023-02-11T01:02:40.050Z,-2.35
2023-02-11T01:07:41.867Z,-2.34
2023-02-11T01:12:43.656Z,-2.33
2023-02-11T01:17:45.453Z,-2.31
2023-02-11T01:22:47.309Z,-2.31
2023-02-11T01:27:50.441Z,-2.28
2023-02-11T01:32:52.258Z,-2.21
2023-02-11T01:37:53.952Z,-2.15
2023-02-11T01:42:55.604Z,-2.07
2023-02-11T01:47:57.361Z,-2.02
2023-02-11T01:53:19.072Z,-1.95
2023-02-11T01:58:21.294Z,-1.86
2023-02-11T02:03:24.869Z,-1.79
2023-02-11T02:09:03.151Z,-1.70
2023-02-11T02:14:04.859Z,-1.61
2023-02-11T02:19:15.382Z,-1.54
2023-02-11T02:24:30.722Z,-1.50
2023-02-11T02:29:47.758Z,-1.44
2023-02-11T02:35:04.892Z,-1.39
2023-02-11T02:40:15.687Z,-1.31
2023-02-11T02:45:18.121Z,-1.23
2023-02-11T02:50:30.203Z,-1.16
2023-02-11T02:55:56.008Z,-1.08
2023-02-11T03:01:42.584Z,-1.03
2023-02-11T03:06:48.209Z,-0.98
2023-02-11T03:11:50.295Z,-0.90
2023-02-11T03:16:56.747Z,-0.82
2023-02-11T03:21:59.353Z,-0.80
2023-02-11T03:27:08.249Z,-0.78
2023-02-11T03:32:27.247Z,-0.76
2023-02-11T03:37:45.997Z,-0.76
2023-02-11T03:43:06.793Z,-0.80
2023-02-11T03:48:16.356Z,-0.84
2023-02-11T03:53:20.528Z,-0.85
2023-02-11T03:58:22.277Z,-0.87
2023-02-11T04:03:23.908Z,-0.88
2023-02-11T04:08:25.703Z,-0.89
2023-02-11T04:13:27.399Z,-0.89
2023-02-11T04:18:29.102Z,-0.85
2023-02-11T04:23:30.851Z,-0.83
2023-02-11T04:28:32.678Z,-0.82
2023-02-11T04:33:34.394Z,-0.78
2023-02-11T04:38:36.035Z,-0.77
2023-02-11T04:43:37.710Z,-0.77
2023-02-11T04:48:39.503Z,-0.75
2023-02-11T04:53:41.577Z,-0.73
2023-02-11T04:58:43.254Z,-0.73
2023-02-11T05:03:45.013Z,-0.69
2023-02-11T05:08:46.699Z,-0.67
2023-02-11T05:13:49.013Z,-0.64
2023-02-11T05:18:52.508Z,-0.57
2023-02-11T05:23:54.378Z,-0.52
2023-02-11T05:28:56.381Z,-0.51
2023-02-11T05:33:58.417Z,-0.48
2023-02-11T05:39:00.193Z,-0.45
2023-02-11T05:44:01.892Z,-0.43
2023-02-11T05:49:03.829Z,-0.40
2023-02-11T05:54:05.690Z,-0.38
2023-02-11T05:59:07.321Z,-0.32
2023-02-11T06:04:08.993Z,-0.31
2023-02-11T06:09:11.858Z,-0.37
2023-02-11T06:14:14.359Z,-0.41
2023-02-11T06:19:16.085Z,-0.45
2023-02-11T06:24:38.464Z,-0.48
2023-02-11T06:29:39.484Z,-0.48
2023-02-11T06:34:41.307Z,-0.48
2023-02-11T06:39:45.162Z,-0.47
2023-02-11T06:44:46.798Z,-0.43
2023-02-11T06:49:48.520Z,-0.40
2023-02-11T06:54:50.446Z,-0.38
2023-02-11T06:59:52.091Z,-0.34
2023-02-11T07:04:53.936Z,-0.30
2023-02-11T07:09:55.823Z,-0.23
2023-02-11T07:14:58.233Z,-0.15
2023-02-11T07:19:59.898Z,-0.11
2023-02-11T07:25:01.791Z,-0.09
2023-02-11T07:30:07.240Z,-0.08
2023-02-11T07:35:09.143Z,0.00
2023-02-11T07:40:11.463Z,0.17
2023-02-11T07:45:14.106Z,0.63
2023-02-11T07:50:17.302Z,1.01
2023-02-11T07:55:18.996Z,1.24
2023-02-11T08:00:21.266Z,1.44
2023-02-11T08:05:23.067Z,1.68
2023-02-11T08:10:24.675Z,1.88
2023-02-11T08:15:26.368Z,1.96
2023-02-11T08:20:28.202Z,2.10
2023-02-11T08:25:29.922Z,2.17
2023-02-11T08:30:31.600Z,2.23
2023-02-11T08:35:35.379Z,2.31
2023-02-11T08:40:37.077Z,2.38
2023-02-11T08:45:38.770Z,2.41
2023-02-11T08:50:40.737Z,2.44
2023-02-11T08:55:49.285Z,2.50
2023-02-11T09:00:51.456Z,2.56
2023-02-11T09:05:54.839Z,2.63
2023-02-11T09:10:57.380Z,2.75
2023-02-11T09:16:01.076Z,2.92
2023-02-11T09:21:08.516Z,3.02
2023-02-11T09:26:22.402Z,3.11
2023-02-11T09:31:26.116Z,3.07
2023-02-11T09:36:31.739Z,3.15
2023-02-11T09:41:49.523Z,3.28
2023-02-11T09:47:01.491Z,3.38
2023-02-11T09:52:23.775Z,3.52
2023-02-11T09:57:31.937Z,3.75
2023-02-11T10:02:56.010Z,4.11
2023-02-11T10:08:17.110Z,4.33
2023-02-11T10:13:37.176Z,4.40
2023-02-11T10:19:08.315Z,4.36
2023-02-11T10:24:14.085Z,4.32
2023-02-11T10:29:33.958Z,4.36
2023-02-11T10:34:41.495Z,4.47
2023-02-11T10:39:43.485Z,4.74
2023-02-11T10:45:02.328Z,4.93
2023-02-11T10:50:29.725Z,4.96
2023-02-11T10:55:31.357Z,5.09
2023-02-11T11:00:36.894Z,5.38
2023-02-11T11:05:50.877Z,5.63
2023-02-11T11:11:08.911Z,5.76
2023-02-11T11:16:13.651Z,5.55
2023-02-11T11:21:25.869Z,5.30
2023-02-11T11:26:41.655Z,5.03
2023-02-11T11:31:59.524Z,4.83
2023-02-11T11:37:11.144Z,4.69
2023-02-11T11:42:30.964Z,4.58
2023-02-11T11:47:59.824Z,4.42
2023-02-11T11:53:05.085Z,4.28
2023-02-11T11:58:15.023Z,4.27
2023-02-11T12:03:34.756Z,4.29
2023-02-11T12:08:58.083Z,4.33
2023-02-11T12:14:45.901Z,4.27
2023-02-11T12:20:01.278Z,4.20
2023-02-11T12:25:26.516Z,4.15
2023-02-11T12:30:51.725Z,4.12
2023-02-11T12:36:13.336Z,4.11
2023-02-11T12:41:39.906Z,4.06
2023-02-11T12:47:16.529Z,4.09
2023-02-11T12:52:20.989Z,4.09
2023-02-11T12:57:26.609Z,3.98
2023-02-11T13:02:52.328Z,3.88
2023-02-11T13:08:02.984Z,3.86
2023-02-11T13:13:20.149Z,3.88
2023-02-11T13:19:01.813Z,3.85
2023-02-11T13:24:22.162Z,3.81
2023-02-11T13:30:04.379Z,3.80
2023-02-11T13:35:28.032Z,3.80
2023-02-11T13:40:34.371Z,3.82
2023-02-11T13:45:51.775Z,3.83
2023-02-11T13:50:57.127Z,3.84
2023-02-11T13:56:12.287Z,3.89
2023-02-11T14:01:34.039Z,3.92
2023-02-11T14:06:54.650Z,3.89
2023-02-11T14:12:24.906Z,3.87
2023-02-11T14:17:32.041Z,3.81
2023-02-11T14:22:49.550Z,3.82
2023-02-11T14:27:58.009Z,3.87
2023-02-11T14:33:26.517Z,3.87
2023-02-11T14:38:54.042Z,3.82
2023-02-11T14:43:58.408Z,3.75
2023-02-11T14:49:03.523Z,3.70
2023-02-11T14:54:17.207Z,3.65
2023-02-11T14:59:22.546Z,3.59
2023-02-11T15:04:30.215Z,3.58
2023-02-11T15:09:44.288Z,3.55
2023-02-11T15:14:49.507Z,3.51
2023-02-11T15:19:55.550Z,3.50
2023-02-11T15:24:59.929Z,3.51
2023-02-11T15:30:01.816Z,3.53
2023-02-11T15:35:05.666Z,3.52
2023-02-11T15:40:23.222Z,3.46
2023-02-11T15:45:29.051Z,3.41
2023-02-11T15:50:37.305Z,3.34
2023-02-11T15:55:41.611Z,3.21
2023-02-11T16:00:50.126Z,3.10
2023-02-11T16:05:52.365Z,3.05
2023-02-11T16:11:03.181Z,2.98
2023-02-11T16:16:19.821Z,2.90
2023-02-11T16:21:29.852Z,2.83
2023-02-11T16:26:37.473Z,2.80
2023-02-11T16:31:46.132Z,2.73
2023-02-11T16:36:49.531Z,2.67
2023-02-11T16:41:52.312Z,2.64
2023-02-11T16:46:59.327Z,2.60
2023-02-11T16:52:05.627Z,2.54
2023-02-11T16:57:19.580Z,2.53
2023-02-11T17:02:31.057Z,2.52
2023-02-11T17:07:33.325Z,2.52
2023-02-11T17:12:34.907Z,2.53
2023-02-11T17:17:36.853Z,2.60
2023-02-11T17:22:38.724Z,2.65
2023-02-11T17:27:40.815Z,2.65
2023-02-11T17:32:42.580Z,2.70
2023-02-11T17:37:44.182Z,2.74
2023-02-11T17:42:46.082Z,2.74
2023-02-11T17:47:49.457Z,2.77
2023-02-11T17:52:51.573Z,2.82
2023-02-11T17:57:53.461Z,2.84
2023-02-11T18:02:57.591Z,2.86
2023-02-11T18:07:59.695Z,2.91
2023-02-11T18:13:01.446Z,2.92
2023-02-11T18:18:04.073Z,2.91
2023-02-11T18:23:06.540Z,2.91
2023-02-11T18:28:08.194Z,2.93
2023-02-11T18:33:14.257Z,2.95
2023-02-11T18:38:16.217Z,2.95
2023-02-11T18:43:19.520Z,2.93
2023-02-11T18:48:21.430Z,2.95
2023-02-11T18:53:24.779Z,3.01
2023-02-11T18:58:26.489Z,3.06
2023-02-11T19:03:28.091Z,3.08
2023-02-11T19:08:29.996Z,3.08
2023-02-11T19:13:31.982Z,3.11
2023-02-11T19:18:35.041Z,3.17
2023-02-11T19:23:37.994Z,3.23
2023-02-11T19:28:40.047Z,3.21
2023-02-11T19:33:41.790Z,3.25
2023-02-11T19:38:44.480Z,3.31
2023-02-11T19:43:48.515Z,3.37
2023-02-11T19:48:50.945Z,3.39
2023-02-11T19:53:54.118Z,3.45
2023-02-11T19:58:55.927Z,3.54
2023-02-11T20:03:57.730Z,3.62
2023-02-11T20:09:02.191Z,3.67
2023-02-11T20:14:05.269Z,3.74
2023-02-11T20:19:07.019Z,3.83
2023-02-11T20:24:09.028Z,3.90
2023-02-11T20:29:11.008Z,3.95
2023-02-11T20:34:14.035Z,4.03
2023-02-11T20:39:17.185Z,4.05
2023-02-11T20:44:21.903Z,4.07
2023-02-11T20:49:25.166Z,4.12
2023-02-11T20:54:27.199Z,4.18
2023-02-11T20:59:28.875Z,4.24
2023-02-11T21:04:31.150Z,4.29
2023-02-11T21:09:33.768Z,4.31
2023-02-11T21:14:35.972Z,4.35
2023-02-11T21:19:37.831Z,4.36
2023-02-11T21:24:39.511Z,4.38
2023-02-11T21:29:53.551Z,4.38
2023-02-11T21:34:56.170Z,4.37
2023-02-11T21:39:57.800Z,4.38
2023-02-11T21:44:59.864Z,4.40
2023-02-11T21:50:01.591Z,4.43
2023-02-11T21:55:03.513Z,4.46
2023-02-11T22:00:07.569Z,4.47
2023-02-11T22:05:10.444Z,4.49
2023-02-11T22:10:12.652Z,4.50
2023-02-11T22:15:21.790Z,4.50
2023-02-11T22:20:23.776Z,4.49
2023-02-11T22:25:25.459Z,4.52
2023-02-11T22:30:27.240Z,4.54
2023-02-11T22:35:29.501Z,4.54
2023-02-11T22:40:31.184Z,4.56
2023-02-11T22:45:34.563Z,4.57
2023-02-11T22:50:36.382Z,4.60
2023-02-11T22:55:39.439Z,4.62
2023-02-11T23:00:41.509Z,4.60
2023-02-11T23:05:43.393Z,4.59
2023-02-11T23:10:45.130Z,4.61
2023-02-11T23:15:47.549Z,4.62
2023-02-11T23:20:49.377Z,4.63
2023-02-11T23:25:51.004Z,4.65
2023-02-11T23:30:52.738Z,4.65
2023-02-11T23:35:55.039Z,4.62
2023-02-11T23:40:57.048Z,4.67
2023-02-11T23:45:59.130Z,4.71
2023-02-11T23:51:00.844Z,4.77
2023-02-11T23:56:09.828Z,4.81
